sensor_id;sensor_type;location;lat;lon;timestamp;pressure;altitude;pressure_sealevel;temperature;humidity
5062;BME280;2351;50.812;12.872;2023-05-23T00:00:24;97564.91;;;14.42;100.00
5062;BME280;2351;50.812;12.872;2023-05-23T00:02:56;97569.22;;;14.35;100.00
5062;BME280;2351;50.812;12.872;2023-05-23T00:05:27;97563.06;;;14.26;100.00
5062;BME280;2351;50.812;12.872;2023-05-23T00:07:59;97568.38;;;14.26;100.00
5062;BME280;2351;50.812;12.872;2023-05-23T00:10:31;97561.22;;;14.27;100.00
5062;BME280;2351;50.812;12.872;2023-05-23T00:13:03;97565.41;;;14.29;100.00
5062;BME280;2351;50.812;12.872;2023-05-23T00:15:40;97558.91;;;14.32;100.00
5062;BME280;2351;50.812;12.872;2023-05-23T00:18:12;97556.25;;;14.32;100.00
5062;BME280;2351;50.812;12.872;2023-05-23T00:20:44;97542.78;;;14.34;100.00
5062;BME280;2351;50.812;12.872;2023-05-23T00:23:16;97536.44;;;14.35;100.00
5062;BME280;2351;50.812;12.872;2023-05-23T00:25:50;97534.44;;;14.37;100.00
5062;BME280;2351;50.812;12.872;2023-05-23T00:28:22;97539.75;;;14.37;100.00
5062;BME280;2351;50.812;12.872;2023-05-23T00:30:56;97543.41;;;14.36;100.00
5062;BME280;2351;50.812;12.872;2023-05-23T00:33:28;97546.94;;;14.36;100.00
5062;BME280;2351;50.812;12.872;2023-05-23T00:36:02;97558.56;;;14.35;100.00
5062;BME280;2351;50.812;12.872;2023-05-23T00:38:34;97556.59;;;14.37;100.00
5062;BME280;2351;50.812;12.872;2023-05-23T00:41:06;97562.41;;;14.41;100.00
5062;BME280;2351;50.812;12.872;2023-05-23T00:43:37;97554.75;;;14.46;100.00
5062;BME280;2351;50.812;12.872;2023-05-23T00:46:11;97539.25;;;14.50;100.00
5062;BME280;2351;50.812;12.872;2023-05-23T00:48:43;97531.94;;;14.52;100.00
5062;BME280;2351;50.812;12.872;2023-05-23T00:51:15;97535.44;;;14.52;100.00
5062;BME280;2351;50.812;12.872;2023-05-23T00:53:47;97536.44;;;14.51;100.00
5062;BME280;2351;50.812;12.872;2023-05-23T00:56:19;97530.94;;;14.53;100.00
5062;BME280;2351;50.812;12.872;2023-05-23T00:58:52;97528.28;;;14.53;100.00
5062;BME280;2351;50.812;12.872;2023-05-23T01:01:26;97529.13;;;14.53;100.00
5062;BME280;2351;50.812;12.872;2023-05-23T01:03:57;97537.28;;;14.52;100.00
5062;BME280;2351;50.812;12.872;2023-05-23T01:06:29;97531.94;;;14.52;100.00
5062;BME280;2351;50.812;12.872;2023-05-23T01:09:02;97533.28;;;14.56;100.00
5062;BME280;2351;50.812;12.872;2023-05-23T01:11:41;97518.97;;;14.57;100.00
5062;BME280;2351;50.812;12.872;2023-05-23T01:14:18;97511.66;;;14.59;100.00
5062;BME280;2351;50.812;12.872;2023-05-23T01:16:56;97514.13;;;14.60;100.00
5062;BME280;2351;50.812;12.872;2023-05-23T01:19:57;97521.97;;;14.62;100.00
5062;BME280;2351;50.812;12.872;2023-05-23T01:22:47;97512.47;;;14.59;100.00
5062;BME280;2351;50.812;12.872;2023-05-23T01:25:27;97516.31;;;14.57;100.00
5062;BME280;2351;50.812;12.872;2023-05-23T01:28:04;97509.97;;;14.58;100.00
5062;BME280;2351;50.812;12.872;2023-05-23T01:30:39;97507.81;;;14.61;100.00
5062;BME280;2351;50.812;12.872;2023-05-23T01:33:13;97512.66;;;14.66;100.00
5062;BME280;2351;50.812;12.872;2023-05-23T01:35:46;97499.31;;;14.66;100.00
5062;BME280;2351;50.812;12.872;2023-05-23T01:38:18;97500.84;;;14.69;100.00
5062;BME280;2351;50.812;12.872;2023-05-23T01:40:50;97500.66;;;14.70;100.00
5062;BME280;2351;50.812;12.872;2023-05-23T01:43:23;97490.00;;;14.70;100.00
5062;BME280;2351;50.812;12.872;2023-05-23T01:45:56;97477.69;;;14.69;100.00
5062;BME280;2351;50.812;12.872;2023-05-23T01:48:29;97474.03;;;14.70;100.00
5062;BME280;2351;50.812;12.872;2023-05-23T01:51:01;97477.03;;;14.67;100.00
5062;BME280;2351;50.812;12.872;2023-05-23T01:53:34;97467.38;;;14.66;100.00
5062;BME280;2351;50.812;12.872;2023-05-23T01:56:07;97465.38;;;14.68;100.00
5062;BME280;2351;50.812;12.872;2023-05-23T01:58:41;97467.19;;;14.68;100.00
5062;BME280;2351;50.812;12.872;2023-05-23T02:01:12;97459.38;;;14.66;100.00
5062;BME280;2351;50.812;12.872;2023-05-23T02:03:44;97455.06;;;14.65;100.00
5062;BME280;2351;50.812;12.872;2023-05-23T02:06:16;97449.72;;;14.65;100.00
5062;BME280;2351;50.812;12.872;2023-05-23T02:08:48;97456.06;;;14.64;100.00
5062;BME280;2351;50.812;12.872;2023-05-23T02:11:19;97452.53;;;14.64;100.00
5062;BME280;2351;50.812;12.872;2023-05-23T02:13:53;97440.06;;;14.64;100.00
5062;BME280;2351;50.812;12.872;2023-05-23T02:16:24;97442.88;;;14.63;100.00
5062;BME280;2351;50.812;12.872;2023-05-23T02:18:56;97442.88;;;14.63;100.00
5062;BME280;2351;50.812;12.872;2023-05-23T02:21:28;97447.06;;;14.65;100.00
5062;BME280;2351;50.812;12.872;2023-05-23T02:24:01;97447.06;;;14.65;100.00
5062;BME280;2351;50.812;12.872;2023-05-23T02:26:32;97447.06;;;14.65;100.00
5062;BME280;2351;50.812;12.872;2023-05-23T02:29:05;97448.53;;;14.68;100.00
5062;BME280;2351;50.812;12.872;2023-05-23T02:31:37;97450.38;;;14.67;100.00
5062;BME280;2351;50.812;12.872;2023-05-23T02:34:09;97456.38;;;14.69;100.00
5062;BME280;2351;50.812;12.872;2023-05-23T02:36:41;97458.91;;;14.71;100.00
5062;BME280;2351;50.812;12.872;2023-05-23T02:39:12;97453.72;;;14.69;100.00
5062;BME280;2351;50.812;12.872;2023-05-23T02:41:44;97443.91;;;14.70;100.00
5062;BME280;2351;50.812;12.872;2023-05-23T02:44:17;97455.38;;;14.70;100.00
5062;BME280;2351;50.812;12.872;2023-05-23T02:46:50;97450.06;;;14.70;100.00
5062;BME280;2351;50.812;12.872;2023-05-23T02:49:21;97451.06;;;14.69;100.00
5062;BME280;2351;50.812;12.872;2023-05-23T02:51:53;97459.91;;;14.70;100.00
5062;BME280;2351;50.812;12.872;2023-05-23T02:54:25;97457.22;;;14.70;100.00
5062;BME280;2351;50.812;12.872;2023-05-23T02:56:57;97450.25;;;14.69;100.00
5062;BME280;2351;50.812;12.872;2023-05-23T02:59:30;97449.38;;;14.68;100.00
5062;BME280;2351;50.812;12.872;2023-05-23T03:02:01;97459.03;;;14.69;100.00
5062;BME280;2351;50.812;12.872;2023-05-23T03:04:33;97468.03;;;14.68;100.00
5062;BME280;2351;50.812;12.872;2023-05-23T03:07:05;97472.50;;;14.68;100.00
5062;BME280;2351;50.812;12.872;2023-05-23T03:09:37;97462.03;;;14.66;100.00
5062;BME280;2351;50.812;12.872;2023-05-23T03:12:09;97456.72;;;14.66;100.00
5062;BME280;2351;50.812;12.872;2023-05-23T03:14:42;97458.53;;;14.66;100.00
5062;BME280;2351;50.812;12.872;2023-05-23T03:17:14;97455.72;;;14.67;100.00
5062;BME280;2351;50.812;12.872;2023-05-23T03:19:46;97453.06;;;14.67;100.00
5062;BME280;2351;50.812;12.872;2023-05-23T03:22:18;97458.53;;;14.66;100.00
5062;BME280;2351;50.812;12.872;2023-05-23T03:24:50;97459.72;;;14.63;100.00
5062;BME280;2351;50.812;12.872;2023-05-23T03:27:21;97462.53;;;14.61;100.00
5062;BME280;2351;50.812;12.872;2023-05-23T03:29:54;97469.03;;;14.59;100.00
5062;BME280;2351;50.812;12.872;2023-05-23T03:32:26;97463.72;;;14.59;100.00
5062;BME280;2351;50.812;12.872;2023-05-23T03:34:58;97466.19;;;14.60;100.00
5062;BME280;2351;50.812;12.872;2023-05-23T03:37:29;97474.69;;;14.56;100.00
5062;BME280;2351;50.812;12.872;2023-05-23T03:40:01;97476.69;;;14.54;100.00
5062;BME280;2351;50.812;12.872;2023-05-23T03:42:35;97485.69;;;14.53;100.00
5062;BME280;2351;50.812;12.872;2023-05-23T03:45:08;97491.00;;;14.53;100.00
5062;BME280;2351;50.812;12.872;2023-05-23T03:47:40;97494.66;;;14.52;100.00
5062;BME280;2351;50.812;12.872;2023-05-23T03:50:12;97503.50;;;14.52;100.00
5062;BME280;2351;50.812;12.872;2023-05-23T03:52:44;97502.66;;;14.52;100.00
5062;BME280;2351;50.812;12.872;2023-05-23T03:55:16;97504.50;;;14.51;100.00
5062;BME280;2351;50.812;12.872;2023-05-23T03:57:51;97505.97;;;14.54;100.00
5062;BME280;2351;50.812;12.872;2023-05-23T04:00:24;97503.31;;;14.54;100.00
5062;BME280;2351;50.812;12.872;2023-05-23T04:02:56;97512.16;;;14.54;100.00
5062;BME280;2351;50.812;12.872;2023-05-23T04:05:28;97507.50;;;14.56;100.00
5062;BME280;2351;50.812;12.872;2023-05-23T04:08:00;97506.31;;;14.59;100.00
5062;BME280;2351;50.812;12.872;2023-05-23T04:10:32;97512.31;;;14.61;100.00
5062;BME280;2351;50.812;12.872;2023-05-23T04:13:03;97512.31;;;14.61;100.00
5062;BME280;2351;50.812;12.872;2023-05-23T04:15:37;97512.97;;;14.63;100.00
5062;BME280;2351;50.812;12.872;2023-05-23T04:18:10;97519.97;;;14.64;100.00
5062;BME280;2351;50.812;12.872;2023-05-23T04:20:41;97519.78;;;14.66;100.00
5062;BME280;2351;50.812;12.872;2023-05-23T04:23:13;97517.78;;;14.68;100.00
5062;BME280;2351;50.812;12.872;2023-05-23T04:25:45;97524.47;;;14.72;100.00
5062;BME280;2351;50.812;12.872;2023-05-23T04:28:17;97526.13;;;14.73;100.00
5062;BME280;2351;50.812;12.872;2023-05-23T04:30:50;97526.81;;;14.75;100.00
5062;BME280;2351;50.812;12.872;2023-05-23T04:33:22;97533.44;;;14.79;100.00
5062;BME280;2351;50.812;12.872;2023-05-23T04:35:55;97529.63;;;14.82;100.00
5062;BME280;2351;50.812;12.872;2023-05-23T04:38:27;97522.09;;;14.85;100.00
5062;BME280;2351;50.812;12.872;2023-05-23T04:40:59;97523.44;;;14.89;100.00
5062;BME280;2351;50.812;12.872;2023-05-23T04:43:30;97530.09;;;14.94;100.00
5062;BME280;2351;50.812;12.872;2023-05-23T04:46:04;97533.91;;;14.99;100.00
5062;BME280;2351;50.812;12.872;2023-05-23T04:48:36;97539.56;;;15.04;100.00
5062;BME280;2351;50.812;12.872;2023-05-23T04:51:08;97541.56;;;15.11;100.00
5062;BME280;2351;50.812;12.872;2023-05-23T04:53:40;97539.38;;;15.14;100.00
5062;BME280;2351;50.812;12.872;2023-05-23T04:56:14;97541.84;;;15.16;100.00
5062;BME280;2351;50.812;12.872;2023-05-23T04:58:47;97550.50;;;15.18;100.00
5062;BME280;2351;50.812;12.872;2023-05-23T05:08:33;97545.84;;;15.20;100.00
5062;BME280;2351;50.812;12.872;2023-05-23T05:11:05;97541.84;;;15.24;100.00
5062;BME280;2351;50.812;12.872;2023-05-23T05:13:37;97539.16;;;15.24;100.00
5062;BME280;2351;50.812;12.872;2023-05-23T05:16:08;97554.16;;;15.25;100.00
5062;BME280;2351;50.812;12.872;2023-05-23T05:18:41;97551.00;;;15.21;100.00
5062;BME280;2351;50.812;12.872;2023-05-23T05:21:12;97545.31;;;15.25;100.00
5062;BME280;2351;50.812;12.872;2023-05-23T05:23:45;97555.16;;;15.24;100.00
5062;BME280;2351;50.812;12.872;2023-05-23T05:26:17;97552.50;;;15.24;100.00
5062;BME280;2351;50.812;12.872;2023-05-23T05:28:49;97555.81;;;15.26;100.00
5062;BME280;2351;50.812;12.872;2023-05-23T05:31:21;97562.81;;;15.27;100.00
5062;BME280;2351;50.812;12.872;2023-05-23T05:33:52;97558.31;;;15.28;100.00
5062;BME280;2351;50.812;12.872;2023-05-23T05:36:24;97560.63;;;15.31;100.00
5062;BME280;2351;50.812;12.872;2023-05-23T05:38:57;97560.94;;;15.36;100.00
5062;BME280;2351;50.812;12.872;2023-05-23T05:45:06;97566.44;;;15.43;100.00
5062;BME280;2351;50.812;12.872;2023-05-23T05:47:38;97559.44;;;15.42;100.00
5062;BME280;2351;50.812;12.872;2023-05-23T05:50:10;97565.25;;;15.45;100.00
5062;BME280;2351;50.812;12.872;2023-05-23T05:52:42;97565.75;;;15.49;100.00
5062;BME280;2351;50.812;12.872;2023-05-23T05:55:15;97570.88;;;15.50;100.00
5062;BME280;2351;50.812;12.872;2023-05-23T05:57:47;97576.41;;;15.49;100.00
5062;BME280;2351;50.812;12.872;2023-05-23T06:00:19;97579.09;;;15.41;100.00
5062;BME280;2351;50.812;12.872;2023-05-23T06:02:51;97574.09;;;15.38;100.00
5062;BME280;2351;50.812;12.872;2023-05-23T06:05:26;97573.97;;;15.31;100.00
5062;BME280;2351;50.812;12.872;2023-05-23T06:07:58;97582.16;;;15.29;100.00
5062;BME280;2351;50.812;12.872;2023-05-23T06:10:31;97585.47;;;15.31;100.00
5062;BME280;2351;50.812;12.872;2023-05-23T06:13:03;97580.13;;;15.31;100.00
5062;BME280;2351;50.812;12.872;2023-05-23T06:15:35;97577.81;;;15.28;100.00
5062;BME280;2351;50.812;12.872;2023-05-23T06:18:06;97581.47;;;15.27;100.00
5062;BME280;2351;50.812;12.872;2023-05-23T06:20:38;97593.81;;;15.28;100.00
5062;BME280;2351;50.812;12.872;2023-05-23T06:23:10;97590.66;;;15.16;100.00
5062;BME280;2351;50.812;12.872;2023-05-23T06:25:43;97588.50;;;15.20;100.00
5062;BME280;2351;50.812;12.872;2023-05-23T06:28:15;97588.34;;;15.21;100.00
5062;BME280;2351;50.812;12.872;2023-05-23T06:30:46;97577.16;;;15.18;100.00
5062;BME280;2351;50.812;12.872;2023-05-23T06:33:18;97587.50;;;15.21;100.00
5062;BME280;2351;50.812;12.872;2023-05-23T06:35:50;97585.16;;;15.26;100.00
5062;BME280;2351;50.812;12.872;2023-05-23T06:38:22;97603.16;;;15.24;100.00
5062;BME280;2351;50.812;12.872;2023-05-23T06:40:55;97597.34;;;15.12;100.00
5062;BME280;2351;50.812;12.872;2023-05-23T06:43:26;97597.16;;;15.14;100.00
5062;BME280;2351;50.812;12.872;2023-05-23T06:45:58;97598.53;;;15.10;100.00
5062;BME280;2351;50.812;12.872;2023-05-23T06:48:30;97594.84;;;15.11;100.00
5062;BME280;2351;50.812;12.872;2023-05-23T06:51:01;97592.19;;;15.11;100.00
5062;BME280;2351;50.812;12.872;2023-05-23T06:53:33;97592.50;;;15.16;100.00
5062;BME280;2351;50.812;12.872;2023-05-23T06:56:06;97594.16;;;15.17;100.00
5062;BME280;2351;50.812;12.872;2023-05-23T06:58:38;97599.16;;;15.20;100.00
5062;BME280;2351;50.812;12.872;2023-05-23T07:01:10;97600.66;;;15.23;100.00
5062;BME280;2351;50.812;12.872;2023-05-23T07:03:42;97607.34;;;15.18;100.00
5062;BME280;2351;50.812;12.872;2023-05-23T07:06:15;97598.53;;;15.10;100.00
5062;BME280;2351;50.812;12.872;2023-05-23T07:08:47;97607.84;;;15.05;100.00
5062;BME280;2351;50.812;12.872;2023-05-23T07:11:20;97598.84;;;15.06;100.00
5062;BME280;2351;50.812;12.872;2023-05-23T07:13:52;97604.19;;;15.06;100.00
5062;BME280;2351;50.812;12.872;2023-05-23T07:16:24;97608.19;;;15.02;100.00
5062;BME280;2351;50.812;12.872;2023-05-23T07:18:55;97606.50;;;15.01;100.00
5062;BME280;2351;50.812;12.872;2023-05-23T07:21:27;97602.84;;;15.02;100.00
5062;BME280;2351;50.812;12.872;2023-05-23T07:23:59;97606.84;;;14.98;100.00
5062;BME280;2351;50.812;12.872;2023-05-23T07:26:32;97606.03;;;14.98;100.00
5062;BME280;2351;50.812;12.872;2023-05-23T07:29:04;97604.84;;;15.00;100.00
5062;BME280;2351;50.812;12.872;2023-05-23T07:31:36;97611.66;;;15.03;100.00
5062;BME280;2351;50.812;12.872;2023-05-23T07:34:08;97613.53;;;14.86;100.00
5062;BME280;2351;50.812;12.872;2023-05-23T07:36:39;97608.72;;;14.73;100.00
5062;BME280;2351;50.812;12.872;2023-05-23T07:39:11;97618.84;;;14.61;100.00
5062;BME280;2351;50.812;12.872;2023-05-23T07:41:46;97613.53;;;14.69;100.00
5062;BME280;2351;50.812;12.872;2023-05-23T07:44:18;97610.19;;;14.67;100.00
5062;BME280;2351;50.812;12.872;2023-05-23T07:46:50;97611.00;;;14.59;100.00
5062;BME280;2351;50.812;12.872;2023-05-23T07:49:21;97617.81;;;14.54;100.00
5062;BME280;2351;50.812;12.872;2023-05-23T07:51:53;97614.81;;;14.57;100.00
5062;BME280;2351;50.812;12.872;2023-05-23T07:54:25;97622.63;;;14.58;100.00
5062;BME280;2351;50.812;12.872;2023-05-23T07:56:58;97617.84;;;14.62;100.00
5062;BME280;2351;50.812;12.872;2023-05-23T07:59:30;97622.66;;;14.67;100.00
5062;BME280;2351;50.812;12.872;2023-05-23T08:02:02;97629.47;;;14.53;100.00
5062;BME280;2351;50.812;12.872;2023-05-23T08:04:33;97620.50;;;14.62;100.00
5062;BME280;2351;50.812;12.872;2023-05-23T08:07:05;97628.50;;;14.70;100.00
5062;BME280;2351;50.812;12.872;2023-05-23T08:09:37;97630.03;;;14.73;100.00
5062;BME280;2351;50.812;12.872;2023-05-23T08:12:10;97626.50;;;14.72;100.00
5062;BME280;2351;50.812;12.872;2023-05-23T08:14:42;97631.19;;;14.79;100.00
5062;BME280;2351;50.812;12.872;2023-05-23T08:17:14;97635.50;;;14.80;100.00
5062;BME280;2351;50.812;12.872;2023-05-23T08:19:46;97637.31;;;14.79;100.00
5062;BME280;2351;50.812;12.872;2023-05-23T08:22:17;97629.19;;;14.81;100.00
5062;BME280;2351;50.812;12.872;2023-05-23T08:24:49;97643.00;;;14.84;100.00
5062;BME280;2351;50.812;12.872;2023-05-23T08:27:22;97645.00;;;14.90;100.00
5062;BME280;2351;50.812;12.872;2023-05-23T08:29:54;97643.84;;;14.85;100.00
5062;BME280;2351;50.812;12.872;2023-05-23T08:32:26;97641.50;;;14.82;100.00
5062;BME280;2351;50.812;12.872;2023-05-23T08:34:57;97646.16;;;14.80;100.00
5062;BME280;2351;50.812;12.872;2023-05-23T08:37:29;97648.81;;;14.71;100.00
5062;BME280;2351;50.812;12.872;2023-05-23T08:40:01;97654.47;;;14.68;100.00
5062;BME280;2351;50.812;12.872;2023-05-23T08:42:34;97656.13;;;14.69;100.00
5062;BME280;2351;50.812;12.872;2023-05-23T08:45:08;97659.28;;;14.65;100.00
5062;BME280;2351;50.812;12.872;2023-05-23T08:47:41;97664.34;;;14.25;100.00
5062;BME280;2351;50.812;12.872;2023-05-23T08:50:15;97670.28;;;14.02;100.00
5062;BME280;2351;50.812;12.872;2023-05-23T08:52:51;97666.88;;;13.83;100.00
5062;BME280;2351;50.812;12.872;2023-05-23T08:55:26;97671.81;;;13.70;100.00
5062;BME280;2351;50.812;12.872;2023-05-23T08:57:59;97667.53;;;13.77;100.00
5062;BME280;2351;50.812;12.872;2023-05-23T09:00:32;97668.84;;;13.81;100.00
5062;BME280;2351;50.812;12.872;2023-05-23T09:03:05;97679.84;;;13.86;100.00
5062;BME280;2351;50.812;12.872;2023-05-23T09:05:37;97676.72;;;13.91;100.00
5062;BME280;2351;50.812;12.872;2023-05-23T09:08:08;97675.41;;;13.95;100.00
5062;BME280;2351;50.812;12.872;2023-05-23T09:10:40;97681.41;;;13.97;100.00
5062;BME280;2351;50.812;12.872;2023-05-23T09:13:14;97681.56;;;13.96;100.00
5062;BME280;2351;50.812;12.872;2023-05-23T09:16:05;97686.16;;;13.85;100.00
5062;BME280;2351;50.812;12.872;2023-05-23T09:18:38;97694.38;;;14.00;100.00
5062;BME280;2351;50.812;12.872;2023-05-23T09:21:11;97691.91;;;14.07;100.00
5062;BME280;2351;50.812;12.872;2023-05-23T09:23:43;97688.63;;;14.13;100.00
5062;BME280;2351;50.812;12.872;2023-05-23T09:26:15;97691.59;;;14.10;100.00
5062;BME280;2351;50.812;12.872;2023-05-23T09:28:48;97696.97;;;14.19;100.00
5062;BME280;2351;50.812;12.872;2023-05-23T09:31:25;97694.94;;;14.12;100.00
5062;BME280;2351;50.812;12.872;2023-05-23T09:33:57;97700.06;;;14.14;100.00
5062;BME280;2351;50.812;12.872;2023-05-23T09:36:30;97699.09;;;14.15;100.00
5062;BME280;2351;50.812;12.872;2023-05-23T09:39:04;97698.94;;;14.16;100.00
5062;BME280;2351;50.812;12.872;2023-05-23T09:41:35;97697.97;;;14.26;100.00
5062;BME280;2351;50.812;12.872;2023-05-23T09:44:09;97692.16;;;14.39;100.00
5062;BME280;2351;50.812;12.872;2023-05-23T09:46:40;97700.00;;;14.49;100.00
5062;BME280;2351;50.812;12.872;2023-05-23T09:49:15;97694.22;;;14.61;100.00
5062;BME280;2351;50.812;12.872;2023-05-23T09:51:57;97693.78;;;14.74;100.00
5062;BME280;2351;50.812;12.872;2023-05-23T09:54:29;97697.44;;;14.82;100.00
5062;BME280;2351;50.812;12.872;2023-05-23T09:57:01;97691.13;;;14.99;100.00
5062;BME280;2351;50.812;12.872;2023-05-23T09:59:37;97693.13;;;15.05;100.00
5062;BME280;2351;50.812;12.872;2023-05-23T10:02:10;97685.13;;;14.97;100.00
5062;BME280;2351;50.812;12.872;2023-05-23T10:04:43;97689.44;;;15.15;100.00
5062;BME280;2351;50.812;12.872;2023-05-23T10:07:18;97693.47;;;15.02;100.00
5062;BME280;2351;50.812;12.872;2023-05-23T10:09:54;97694.13;;;14.80;100.00
5062;BME280;2351;50.812;12.872;2023-05-23T10:12:39;97694.88;;;14.64;100.00
5062;BME280;2351;50.812;12.872;2023-05-23T10:15:14;97690.22;;;14.57;100.00
5062;BME280;2351;50.812;12.872;2023-05-23T10:18:01;97698.66;;;14.36;100.00
5062;BME280;2351;50.812;12.872;2023-05-23T10:20:35;97702.16;;;14.37;100.00
5062;BME280;2351;50.812;12.872;2023-05-23T10:23:07;97697.34;;;14.40;100.00
5062;BME280;2351;50.812;12.872;2023-05-23T10:25:39;97704.53;;;14.48;100.00
5062;BME280;2351;50.812;12.872;2023-05-23T10:28:12;97704.16;;;14.43;100.00
5062;BME280;2351;50.812;12.872;2023-05-23T10:30:46;97706.69;;;14.44;100.00
5062;BME280;2351;50.812;12.872;2023-05-23T10:33:18;97709.34;;;14.44;100.00
5062;BME280;2351;50.812;12.872;2023-05-23T10:35:56;97713.34;;;14.57;100.00
5062;BME280;2351;50.812;12.872;2023-05-23T10:38:35;97709.19;;;14.63;100.00
5062;BME280;2351;50.812;12.872;2023-05-23T10:41:11;97710.59;;;14.75;100.00
5062;BME280;2351;50.812;12.872;2023-05-23T10:43:51;97713.78;;;14.87;100.00
5062;BME280;2351;50.812;12.872;2023-05-23T10:46:49;97712.25;;;15.01;100.00
5062;BME280;2351;50.812;12.872;2023-05-23T10:49:36;97701.09;;;15.14;100.00
5062;BME280;2351;50.812;12.872;2023-05-23T10:52:09;97697.44;;;15.23;100.00
5062;BME280;2351;50.812;12.872;2023-05-23T10:54:42;97701.25;;;15.29;100.00
5062;BME280;2351;50.812;12.872;2023-05-23T10:57:16;97699.41;;;15.38;100.00
5062;BME280;2351;50.812;12.872;2023-05-23T10:59:49;97696.56;;;15.47;100.00
5062;BME280;2351;50.812;12.872;2023-05-23T11:02:26;97701.75;;;15.41;100.00
5062;BME280;2351;50.812;12.872;2023-05-23T11:05:17;97705.09;;;15.51;99.12
5062;BME280;2351;50.812;12.872;2023-05-23T11:08:09;97703.03;;;15.61;98.51
5062;BME280;2351;50.812;12.872;2023-05-23T11:10:53;97703.56;;;15.65;97.82
5062;BME280;2351;50.812;12.872;2023-05-23T11:13:56;97707.88;;;15.66;95.80
5062;BME280;2351;50.812;12.872;2023-05-23T11:16:30;97705.66;;;15.78;96.17
5062;BME280;2351;50.812;12.872;2023-05-23T11:19:22;97706.16;;;15.81;94.37
5062;BME280;2351;50.812;12.872;2023-05-23T11:21:58;97704.31;;;15.82;94.08
5062;BME280;2351;50.812;12.872;2023-05-23T11:28:22;97708.75;;;15.50;91.53
5062;BME280;2351;50.812;12.872;2023-05-23T11:30:56;97713.59;;;15.38;92.75
5062;BME280;2351;50.812;12.872;2023-05-23T11:33:29;97720.75;;;15.38;93.33
5062;BME280;2351;50.812;12.872;2023-05-23T11:36:00;97709.25;;;15.29;93.29
5062;BME280;2351;50.812;12.872;2023-05-23T11:38:34;97714.59;;;15.29;93.80
5062;BME280;2351;50.812;12.872;2023-05-23T11:41:06;97722.44;;;15.22;93.95
5062;BME280;2351;50.812;12.872;2023-05-23T11:43:48;97714.44;;;15.22;94.72
5062;BME280;2351;50.812;12.872;2023-05-23T11:46:21;97715.75;;;15.18;95.46
5062;BME280;2351;50.812;12.872;2023-05-23T11:48:53;97710.44;;;15.18;95.39
5062;BME280;2351;50.812;12.872;2023-05-23T11:51:25;97721.44;;;15.15;95.71
5062;BME280;2351;50.812;12.872;2023-05-23T11:53:59;97717.75;;;15.16;96.04
5062;BME280;2351;50.812;12.872;2023-05-23T11:56:38;97719.25;;;15.02;95.88
5062;BME280;2351;50.812;12.872;2023-05-23T11:59:09;97725.44;;;14.86;96.77
5062;BME280;2351;50.812;12.872;2023-05-23T12:01:43;97724.59;;;14.77;96.69
5062;BME280;2351;50.812;12.872;2023-05-23T12:04:14;97724.34;;;14.62;97.38
5062;BME280;2351;50.812;12.872;2023-05-23T12:06:47;97720.00;;;14.53;98.39
5062;BME280;2351;50.812;12.872;2023-05-23T12:09:19;97723.34;;;14.55;98.82
5062;BME280;2351;50.812;12.872;2023-05-23T12:11:51;97726.19;;;14.53;98.98
5062;BME280;2351;50.812;12.872;2023-05-23T12:14:22;97724.50;;;14.52;99.64
5062;BME280;2351;50.812;12.872;2023-05-23T12:16:56;97734.66;;;14.57;100.00
5062;BME280;2351;50.812;12.872;2023-05-23T12:19:28;97725.84;;;14.56;100.00
5062;BME280;2351;50.812;12.872;2023-05-23T12:22:04;97733.16;;;14.54;100.00
5062;BME280;2351;50.812;12.872;2023-05-23T12:24:44;97731.50;;;14.53;100.00
5062;BME280;2351;50.812;12.872;2023-05-23T12:27:16;97734.66;;;14.57;100.00
5062;BME280;2351;50.812;12.872;2023-05-23T12:29:51;97733.53;;;14.68;100.00
5062;BME280;2351;50.812;12.872;2023-05-23T12:32:24;97737.25;;;14.75;100.00
5062;BME280;2351;50.812;12.872;2023-05-23T12:34:56;97735.56;;;14.82;100.00
5062;BME280;2351;50.812;12.872;2023-05-23T12:37:28;97732.06;;;14.90;100.00
5062;BME280;2351;50.812;12.872;2023-05-23T12:40:09;97734.91;;;14.88;100.00
5062;BME280;2351;50.812;12.872;2023-05-23T12:42:58;97735.56;;;14.82;100.00
5062;BME280;2351;50.812;12.872;2023-05-23T12:45:32;97736.50;;;14.65;100.00
5062;BME280;2351;50.812;12.872;2023-05-23T12:48:05;97743.34;;;14.67;100.00
5062;BME280;2351;50.812;12.872;2023-05-23T12:50:37;97745.06;;;14.76;100.00
5062;BME280;2351;50.812;12.872;2023-05-23T12:53:09;97745.38;;;14.90;100.00
5062;BME280;2351;50.812;12.872;2023-05-23T12:55:41;97741.25;;;14.96;100.00
5062;BME280;2351;50.812;12.872;2023-05-23T12:58:13;97749.41;;;14.94;100.00
5062;BME280;2351;50.812;12.872;2023-05-23T13:00:44;97743.41;;;14.92;100.00
5062;BME280;2351;50.812;12.872;2023-05-23T13:03:18;97751.06;;;14.87;100.00
5062;BME280;2351;50.812;12.872;2023-05-23T13:05:50;97746.53;;;14.79;100.00
5062;BME280;2351;50.812;12.872;2023-05-23T13:08:22;97745.88;;;14.69;100.00
5062;BME280;2351;50.812;12.872;2023-05-23T13:10:53;97749.66;;;14.58;100.00
5062;BME280;2351;50.812;12.872;2023-05-23T13:13:25;97742.81;;;14.55;100.00
5062;BME280;2351;50.812;12.872;2023-05-23T13:15:57;97757.59;;;14.50;100.00
5062;BME280;2351;50.812;12.872;2023-05-23T13:18:30;97752.09;;;14.43;100.00
5062;BME280;2351;50.812;12.872;2023-05-23T13:21:02;97750.59;;;14.40;100.00
5062;BME280;2351;50.812;12.872;2023-05-23T13:23:34;97757.59;;;14.41;100.00
5062;BME280;2351;50.812;12.872;2023-05-23T13:26:08;97758.91;;;14.45;100.00
5062;BME280;2351;50.812;12.872;2023-05-23T13:28:39;97762.91;;;14.41;100.00
5062;BME280;2351;50.812;12.872;2023-05-23T13:31:11;97771.53;;;14.35;100.00
5062;BME280;2351;50.812;12.872;2023-05-23T13:33:44;97773.81;;;14.22;100.00
5062;BME280;2351;50.812;12.872;2023-05-23T13:36:16;97782.69;;;14.04;100.00
5062;BME280;2351;50.812;12.872;2023-05-23T13:38:48;97774.81;;;13.94;100.00
5062;BME280;2351;50.812;12.872;2023-05-23T13:41:19;97776.31;;;13.89;100.00
5062;BME280;2351;50.812;12.872;2023-05-23T13:43:52;97781.94;;;13.85;100.00
5062;BME280;2351;50.812;12.872;2023-05-23T13:46:24;97773.06;;;13.77;100.00